sensor_id;sensor_type;location;lat;lon;timestamp;P1;durP1;ratioP1;P2;durP2;ratioP2
2305;SDS011;1161;51.922;8.896;2024-02-14T00:00:15;12.20;;;6.20;;
2305;SDS011;1161;51.922;8.896;2024-02-14T00:02:43;7.60;;;6.00;;
2305;SDS011;1161;51.922;8.896;2024-02-14T00:05:11;12.13;;;6.17;;
2305;SDS011;1161;51.922;8.896;2024-02-14T00:07:38;14.40;;;7.07;;
2305;SDS011;1161;51.922;8.896;2024-02-14T00:10:06;8.17;;;6.90;;
2305;SDS011;1161;51.922;8.896;2024-02-14T00:12:34;7.40;;;6.07;;
2305;SDS011;1161;51.922;8.896;2024-02-14T00:15:01;7.13;;;5.30;;
2305;SDS011;1161;51.922;8.896;2024-02-14T00:17:29;13.40;;;6.53;;
2305;SDS011;1161;51.922;8.896;2024-02-14T00:19:56;8.93;;;5.93;;
2305;SDS011;1161;51.922;8.896;2024-02-14T00:22:24;14.50;;;7.23;;
2305;SDS011;1161;51.922;8.896;2024-02-14T00:24:51;16.77;;;6.93;;
2305;SDS011;1161;51.922;8.896;2024-02-14T00:27:18;6.40;;;5.80;;
2305;SDS011;1161;51.922;8.896;2024-02-14T00:29:45;8.23;;;6.10;;
2305;SDS011;1161;51.922;8.896;2024-02-14T00:32:12;14.77;;;6.33;;
2305;SDS011;1161;51.922;8.896;2024-02-14T00:34:39;6.63;;;5.43;;
2305;SDS011;1161;51.922;8.896;2024-02-14T00:37:05;6.33;;;4.87;;
2305;SDS011;1161;51.922;8.896;2024-02-14T00:39:34;11.00;;;6.77;;
2305;SDS011;1161;51.922;8.896;2024-02-14T00:42:01;10.03;;;6.07;;
2305;SDS011;1161;51.922;8.896;2024-02-14T00:44:28;9.20;;;5.40;;
2305;SDS011;1161;51.922;8.896;2024-02-14T00:46:55;18.63;;;5.97;;
2305;SDS011;1161;51.922;8.896;2024-02-14T00:49:24;10.20;;;5.63;;
2305;SDS011;1161;51.922;8.896;2024-02-14T00:51:51;14.73;;;8.30;;
2305;SDS011;1161;51.922;8.896;2024-02-14T00:54:17;11.80;;;6.47;;
2305;SDS011;1161;51.922;8.896;2024-02-14T00:56:46;17.00;;;6.70;;
2305;SDS011;1161;51.922;8.896;2024-02-14T00:59:12;7.73;;;6.40;;
2305;SDS011;1161;51.922;8.896;2024-02-14T01:01:39;6.43;;;5.93;;
2305;SDS011;1161;51.922;8.896;2024-02-14T01:04:06;8.60;;;6.50;;
2305;SDS011;1161;51.922;8.896;2024-02-14T01:06:33;10.20;;;7.47;;
2305;SDS011;1161;51.922;8.896;2024-02-14T01:09:00;6.60;;;6.00;;
2305;SDS011;1161;51.922;8.896;2024-02-14T01:11:27;9.53;;;6.60;;
2305;SDS011;1161;51.922;8.896;2024-02-14T01:13:55;10.20;;;6.83;;
2305;SDS011;1161;51.922;8.896;2024-02-14T01:16:24;7.90;;;6.60;;
2305;SDS011;1161;51.922;8.896;2024-02-14T01:18:51;8.77;;;5.90;;
2305;SDS011;1161;51.922;8.896;2024-02-14T01:21:17;7.27;;;6.50;;
2305;SDS011;1161;51.922;8.896;2024-02-14T01:23:44;8.90;;;6.80;;
2305;SDS011;1161;51.922;8.896;2024-02-14T01:26:11;7.10;;;6.40;;
2305;SDS011;1161;51.922;8.896;2024-02-14T01:28:38;11.30;;;5.43;;
2305;SDS011;1161;51.922;8.896;2024-02-14T01:31:06;30.27;;;5.50;;
2305;SDS011;1161;51.922;8.896;2024-02-14T01:33:33;7.93;;;4.73;;
2305;SDS011;1161;51.922;8.896;2024-02-14T01:36:00;7.57;;;5.03;;
2305;SDS011;1161;51.922;8.896;2024-02-14T01:38:27;7.47;;;4.97;;
2305;SDS011;1161;51.922;8.896;2024-02-14T01:40:53;7.33;;;4.47;;
2305;SDS011;1161;51.922;8.896;2024-02-14T01:43:20;12.83;;;5.60;;
2305;SDS011;1161;51.922;8.896;2024-02-14T01:45:47;4.67;;;3.00;;
2305;SDS011;1161;51.922;8.896;2024-02-14T01:48:15;3.67;;;3.10;;
2305;SDS011;1161;51.922;8.896;2024-02-14T01:50:43;7.83;;;3.00;;
2305;SDS011;1161;51.922;8.896;2024-02-14T01:53:11;4.83;;;2.90;;
2305;SDS011;1161;51.922;8.896;2024-02-14T01:55:38;9.83;;;4.23;;
2305;SDS011;1161;51.922;8.896;2024-02-14T01:58:05;8.13;;;3.20;;
2305;SDS011;1161;51.922;8.896;2024-02-14T02:00:31;4.20;;;2.90;;
2305;SDS011;1161;51.922;8.896;2024-02-14T02:03:00;3.90;;;2.70;;
2305;SDS011;1161;51.922;8.896;2024-02-14T02:05:28;5.93;;;3.47;;
2305;SDS011;1161;51.922;8.896;2024-02-14T02:07:55;5.93;;;2.73;;
2305;SDS011;1161;51.922;8.896;2024-02-14T02:10:22;3.63;;;3.33;;
2305;SDS011;1161;51.922;8.896;2024-02-14T02:12:51;3.33;;;3.07;;
2305;SDS011;1161;51.922;8.896;2024-02-14T02:15:18;5.30;;;3.00;;
2305;SDS011;1161;51.922;8.896;2024-02-14T02:17:45;4.27;;;2.80;;
2305;SDS011;1161;51.922;8.896;2024-02-14T02:20:17;3.93;;;3.10;;
2305;SDS011;1161;51.922;8.896;2024-02-14T02:22:47;13.53;;;3.17;;
2305;SDS011;1161;51.922;8.896;2024-02-14T02:25:15;7.40;;;3.03;;
2305;SDS011;1161;51.922;8.896;2024-02-14T02:27:41;2.50;;;2.30;;
2305;SDS011;1161;51.922;8.896;2024-02-14T02:30:08;4.07;;;3.67;;
2305;SDS011;1161;51.922;8.896;2024-02-14T02:32:35;3.80;;;3.13;;
2305;SDS011;1161;51.922;8.896;2024-02-14T02:35:03;8.17;;;4.30;;
2305;SDS011;1161;51.922;8.896;2024-02-14T02:37:30;4.83;;;3.20;;
2305;SDS011;1161;51.922;8.896;2024-02-14T02:39:58;6.27;;;4.80;;
2305;SDS011;1161;51.922;8.896;2024-02-14T02:42:26;4.60;;;4.00;;
2305;SDS011;1161;51.922;8.896;2024-02-14T02:44:54;8.97;;;4.30;;
2305;SDS011;1161;51.922;8.896;2024-02-14T02:47:21;6.27;;;2.90;;
2305;SDS011;1161;51.922;8.896;2024-02-14T02:49:48;4.77;;;3.00;;
2305;SDS011;1161;51.922;8.896;2024-02-14T02:52:15;2.90;;;2.70;;
2305;SDS011;1161;51.922;8.896;2024-02-14T02:54:42;12.03;;;3.27;;
2305;SDS011;1161;51.922;8.896;2024-02-14T02:57:10;5.13;;;2.97;;
2305;SDS011;1161;51.922;8.896;2024-02-14T02:59:37;6.83;;;3.37;;
2305;SDS011;1161;51.922;8.896;2024-02-14T03:02:08;4.47;;;3.20;;
2305;SDS011;1161;51.922;8.896;2024-02-14T03:04:37;3.90;;;2.97;;
2305;SDS011;1161;51.922;8.896;2024-02-14T03:07:04;4.90;;;3.03;;
2305;SDS011;1161;51.922;8.896;2024-02-14T03:09:34;4.67;;;3.20;;
2305;SDS011;1161;51.922;8.896;2024-02-14T03:12:01;4.27;;;3.50;;
2305;SDS011;1161;51.922;8.896;2024-02-14T03:14:30;3.00;;;2.80;;
2305;SDS011;1161;51.922;8.896;2024-02-14T03:16:58;10.10;;;3.43;;
2305;SDS011;1161;51.922;8.896;2024-02-14T03:19:26;7.27;;;4.13;;
2305;SDS011;1161;51.922;8.896;2024-02-14T03:21:53;3.90;;;3.47;;
2305;SDS011;1161;51.922;8.896;2024-02-14T03:24:20;4.00;;;3.50;;
2305;SDS011;1161;51.922;8.896;2024-02-14T03:26:47;6.13;;;2.90;;
2305;SDS011;1161;51.922;8.896;2024-02-14T03:29:16;8.67;;;3.17;;
2305;SDS011;1161;51.922;8.896;2024-02-14T03:31:47;3.20;;;2.93;;
2305;SDS011;1161;51.922;8.896;2024-02-14T03:34:14;7.73;;;3.60;;
2305;SDS011;1161;51.922;8.896;2024-02-14T03:36:41;5.33;;;3.10;;
2305;SDS011;1161;51.922;8.896;2024-02-14T03:39:08;10.93;;;3.27;;
2305;SDS011;1161;51.922;8.896;2024-02-14T03:41:36;2.80;;;2.60;;
2305;SDS011;1161;51.922;8.896;2024-02-14T03:44:03;4.40;;;3.13;;
2305;SDS011;1161;51.922;8.896;2024-02-14T03:46:32;4.93;;;2.70;;
2305;SDS011;1161;51.922;8.896;2024-02-14T03:49:02;4.20;;;3.80;;
2305;SDS011;1161;51.922;8.896;2024-02-14T03:51:29;6.77;;;3.63;;
2305;SDS011;1161;51.922;8.896;2024-02-14T03:53:56;5.83;;;3.23;;
2305;SDS011;1161;51.922;8.896;2024-02-14T03:56:23;3.93;;;3.43;;
2305;SDS011;1161;51.922;8.896;2024-02-14T03:58:51;3.27;;;2.80;;
2305;SDS011;1161;51.922;8.896;2024-02-14T04:01:18;2.27;;;2.03;;
2305;SDS011;1161;51.922;8.896;2024-02-14T04:03:45;2.87;;;2.67;;
2305;SDS011;1161;51.922;8.896;2024-02-14T04:06:14;3.43;;;2.80;;
2305;SDS011;1161;51.922;8.896;2024-02-14T04:08:40;6.20;;;2.50;;
2305;SDS011;1161;51.922;8.896;2024-02-14T04:11:07;4.97;;;3.07;;
2305;SDS011;1161;51.922;8.896;2024-02-14T04:13:34;6.00;;;2.50;;
2305;SDS011;1161;51.922;8.896;2024-02-14T04:16:01;5.70;;;2.67;;
2305;SDS011;1161;51.922;8.896;2024-02-14T04:18:27;2.43;;;1.70;;
2305;SDS011;1161;51.922;8.896;2024-02-14T04:20:55;11.20;;;2.60;;
2305;SDS011;1161;51.922;8.896;2024-02-14T04:23:23;3.53;;;2.57;;
2305;SDS011;1161;51.922;8.896;2024-02-14T04:25:52;5.23;;;2.40;;
2305;SDS011;1161;51.922;8.896;2024-02-14T04:28:19;3.33;;;2.67;;
2305;SDS011;1161;51.922;8.896;2024-02-14T04:30:46;5.60;;;2.17;;
2305;SDS011;1161;51.922;8.896;2024-02-14T04:33:15;2.13;;;2.03;;
2305;SDS011;1161;51.922;8.896;2024-02-14T04:35:43;4.57;;;2.47;;
2305;SDS011;1161;51.922;8.896;2024-02-14T04:38:11;2.20;;;2.03;;
2305;SDS011;1161;51.922;8.896;2024-02-14T04:40:41;1.83;;;1.73;;
2305;SDS011;1161;51.922;8.896;2024-02-14T04:43:09;2.07;;;1.97;;
2305;SDS011;1161;51.922;8.896;2024-02-14T04:45:36;3.60;;;3.40;;
2305;SDS011;1161;51.922;8.896;2024-02-14T04:48:07;3.73;;;2.50;;
2305;SDS011;1161;51.922;8.896;2024-02-14T04:50:34;2.30;;;2.20;;
2305;SDS011;1161;51.922;8.896;2024-02-14T04:53:04;3.77;;;2.13;;
2305;SDS011;1161;51.922;8.896;2024-02-14T04:55:33;2.20;;;2.00;;
2305;SDS011;1161;51.922;8.896;2024-02-14T04:58:03;3.27;;;2.20;;
2305;SDS011;1161;51.922;8.896;2024-02-14T05:00:35;3.37;;;2.03;;
2305;SDS011;1161;51.922;8.896;2024-02-14T05:03:02;4.57;;;2.33;;
2305;SDS011;1161;51.922;8.896;2024-02-14T05:05:29;2.50;;;2.40;;
2305;SDS011;1161;51.922;8.896;2024-02-14T05:07:59;2.87;;;2.00;;
2305;SDS011;1161;51.922;8.896;2024-02-14T05:10:25;4.27;;;2.40;;
2305;SDS011;1161;51.922;8.896;2024-02-14T05:12:52;4.10;;;2.37;;
2305;SDS011;1161;51.922;8.896;2024-02-14T05:15:21;5.20;;;3.50;;
2305;SDS011;1161;51.922;8.896;2024-02-14T05:17:48;3.30;;;3.10;;
2305;SDS011;1161;51.922;8.896;2024-02-14T05:20:15;5.13;;;2.57;;
2305;SDS011;1161;51.922;8.896;2024-02-14T05:22:42;3.20;;;3.00;;
2305;SDS011;1161;51.922;8.896;2024-02-14T05:25:09;3.03;;;2.70;;
2305;SDS011;1161;51.922;8.896;2024-02-14T05:27:36;7.30;;;3.00;;
2305;SDS011;1161;51.922;8.896;2024-02-14T05:30:04;5.27;;;3.37;;
2305;SDS011;1161;51.922;8.896;2024-02-14T05:32:33;6.50;;;3.77;;
2305;SDS011;1161;51.922;8.896;2024-02-14T05:35:00;3.30;;;3.10;;
2305;SDS011;1161;51.922;8.896;2024-02-14T05:37:26;6.13;;;4.07;;
2305;SDS011;1161;51.922;8.896;2024-02-14T05:39:54;10.00;;;3.70;;
2305;SDS011;1161;51.922;8.896;2024-02-14T05:42:20;5.40;;;3.43;;
2305;SDS011;1161;51.922;8.896;2024-02-14T05:44:48;6.17;;;3.40;;
2305;SDS011;1161;51.922;8.896;2024-02-14T05:47:15;3.43;;;3.10;;
2305;SDS011;1161;51.922;8.896;2024-02-14T05:49:45;5.13;;;2.80;;
2305;SDS011;1161;51.922;8.896;2024-02-14T05:52:12;4.80;;;3.80;;
2305;SDS011;1161;51.922;8.896;2024-02-14T05:54:41;9.20;;;3.57;;
2305;SDS011;1161;51.922;8.896;2024-02-14T05:57:07;3.10;;;2.90;;
2305;SDS011;1161;51.922;8.896;2024-02-14T05:59:34;4.90;;;3.83;;
2305;SDS011;1161;51.922;8.896;2024-02-14T06:02:01;6.33;;;4.07;;
2305;SDS011;1161;51.922;8.896;2024-02-14T06:04:31;5.83;;;3.40;;
2305;SDS011;1161;51.922;8.896;2024-02-14T06:06:59;3.90;;;3.47;;
2305;SDS011;1161;51.922;8.896;2024-02-14T06:09:25;8.10;;;4.00;;
2305;SDS011;1161;51.922;8.896;2024-02-14T06:11:52;4.53;;;3.40;;
2305;SDS011;1161;51.922;8.896;2024-02-14T06:14:19;4.73;;;2.63;;
2305;SDS011;1161;51.922;8.896;2024-02-14T06:16:46;3.10;;;2.90;;
2305;SDS011;1161;51.922;8.896;2024-02-14T06:19:13;2.93;;;2.57;;
2305;SDS011;1161;51.922;8.896;2024-02-14T06:21:40;3.83;;;3.10;;
2305;SDS011;1161;51.922;8.896;2024-02-14T06:24:08;6.53;;;3.80;;
2305;SDS011;1161;51.922;8.896;2024-02-14T06:26:38;2.97;;;2.40;;
2305;SDS011;1161;51.922;8.896;2024-02-14T06:29:05;4.00;;;2.77;;
2305;SDS011;1161;51.922;8.896;2024-02-14T06:31:32;3.03;;;2.83;;
2305;SDS011;1161;51.922;8.896;2024-02-14T06:33:59;4.37;;;2.60;;
2305;SDS011;1161;51.922;8.896;2024-02-14T06:36:25;4.20;;;2.97;;
2305;SDS011;1161;51.922;8.896;2024-02-14T06:38:52;3.70;;;3.30;;
2305;SDS011;1161;51.922;8.896;2024-02-14T06:41:21;4.10;;;3.33;;
2305;SDS011;1161;51.922;8.896;2024-02-14T06:43:48;2.73;;;2.50;;
2305;SDS011;1161;51.922;8.896;2024-02-14T06:46:14;3.77;;;2.90;;
2305;SDS011;1161;51.922;8.896;2024-02-14T06:48:41;3.83;;;2.93;;
2305;SDS011;1161;51.922;8.896;2024-02-14T06:51:08;4.23;;;3.87;;
2305;SDS011;1161;51.922;8.896;2024-02-14T06:53:34;6.70;;;3.70;;
2305;SDS011;1161;51.922;8.896;2024-02-14T06:56:01;2.53;;;2.33;;
2305;SDS011;1161;51.922;8.896;2024-02-14T06:58:29;4.67;;;3.87;;
2305;SDS011;1161;51.922;8.896;2024-02-14T07:00:56;3.93;;;2.50;;
2305;SDS011;1161;51.922;8.896;2024-02-14T07:03:23;4.57;;;2.90;;
2305;SDS011;1161;51.922;8.896;2024-02-14T07:05:50;5.13;;;3.13;;
2305;SDS011;1161;51.922;8.896;2024-02-14T07:08:17;3.07;;;2.77;;
2305;SDS011;1161;51.922;8.896;2024-02-14T07:10:44;4.00;;;2.80;;
2305;SDS011;1161;51.922;8.896;2024-02-14T07:13:11;3.83;;;3.47;;
2305;SDS011;1161;51.922;8.896;2024-02-14T07:15:40;4.43;;;2.63;;
2305;SDS011;1161;51.922;8.896;2024-02-14T07:18:07;4.23;;;2.57;;
2305;SDS011;1161;51.922;8.896;2024-02-14T07:20:35;5.90;;;3.40;;
2305;SDS011;1161;51.922;8.896;2024-02-14T07:23:02;4.30;;;3.57;;
2305;SDS011;1161;51.922;8.896;2024-02-14T07:25:29;4.43;;;4.03;;
2305;SDS011;1161;51.922;8.896;2024-02-14T07:27:56;9.63;;;5.50;;
2305;SDS011;1161;51.922;8.896;2024-02-14T07:30:23;8.93;;;5.40;;
2305;SDS011;1161;51.922;8.896;2024-02-14T07:32:51;8.87;;;5.67;;
2305;SDS011;1161;51.922;8.896;2024-02-14T07:35:18;10.33;;;6.07;;
2305;SDS011;1161;51.922;8.896;2024-02-14T07:37:45;10.63;;;6.13;;
2305;SDS011;1161;51.922;8.896;2024-02-14T07:40:13;8.60;;;6.40;;
2305;SDS011;1161;51.922;8.896;2024-02-14T07:42:39;9.83;;;6.40;;
2305;SDS011;1161;51.922;8.896;2024-02-14T07:45:07;7.63;;;5.73;;
2305;SDS011;1161;51.922;8.896;2024-02-14T07:47:34;11.60;;;7.27;;
2305;SDS011;1161;51.922;8.896;2024-02-14T07:50:02;9.17;;;5.60;;
2305;SDS011;1161;51.922;8.896;2024-02-14T07:52:30;13.30;;;8.10;;
2305;SDS011;1161;51.922;8.896;2024-02-14T07:54:56;9.00;;;6.37;;
2305;SDS011;1161;51.922;8.896;2024-02-14T07:57:23;12.73;;;6.60;;
2305;SDS011;1161;51.922;8.896;2024-02-14T07:59:51;8.13;;;6.43;;
2305;SDS011;1161;51.922;8.896;2024-02-14T08:02:18;7.70;;;5.73;;
2305;SDS011;1161;51.922;8.896;2024-02-14T08:04:45;8.23;;;5.60;;
2305;SDS011;1161;51.922;8.896;2024-02-14T08:07:13;10.13;;;7.60;;
2305;SDS011;1161;51.922;8.896;2024-02-14T08:09:40;11.00;;;6.40;;
2305;SDS011;1161;51.922;8.896;2024-02-14T08:12:07;11.40;;;6.50;;
2305;SDS011;1161;51.922;8.896;2024-02-14T08:14:33;13.07;;;6.90;;
2305;SDS011;1161;51.922;8.896;2024-02-14T08:17:01;7.80;;;6.17;;
2305;SDS011;1161;51.922;8.896;2024-02-14T08:19:27;8.63;;;6.20;;
2305;SDS011;1161;51.922;8.896;2024-02-14T08:21:54;12.00;;;7.13;;
2305;SDS011;1161;51.922;8.896;2024-02-14T08:24:25;9.57;;;7.07;;
2305;SDS011;1161;51.922;8.896;2024-02-14T08:26:52;10.23;;;7.10;;
2305;SDS011;1161;51.922;8.896;2024-02-14T08:29:20;16.87;;;7.50;;
2305;SDS011;1161;51.922;8.896;2024-02-14T08:31:46;6.53;;;5.67;;
2305;SDS011;1161;51.922;8.896;2024-02-14T08:34:14;14.20;;;6.73;;
2305;SDS011;1161;51.922;8.896;2024-02-14T08:36:41;10.70;;;6.40;;
2305;SDS011;1161;51.922;8.896;2024-02-14T08:39:08;9.37;;;6.43;;
2305;SDS011;1161;51.922;8.896;2024-02-14T08:41:37;15.40;;;7.60;;
2305;SDS011;1161;51.922;8.896;2024-02-14T08:44:04;10.40;;;6.73;;
2305;SDS011;1161;51.922;8.896;2024-02-14T08:46:31;11.77;;;5.97;;
2305;SDS011;1161;51.922;8.896;2024-02-14T08:48:59;8.70;;;6.13;;
2305;SDS011;1161;51.922;8.896;2024-02-14T08:51:27;10.67;;;6.90;;
2305;SDS011;1161;51.922;8.896;2024-02-14T08:53:54;9.60;;;5.90;;
2305;SDS011;1161;51.922;8.896;2024-02-14T08:56:24;9.57;;;6.30;;
2305;SDS011;1161;51.922;8.896;2024-02-14T08:58:53;9.70;;;7.33;;
2305;SDS011;1161;51.922;8.896;2024-02-14T09:01:19;7.13;;;6.33;;
2305;SDS011;1161;51.922;8.896;2024-02-14T09:03:47;7.10;;;5.27;;
2305;SDS011;1161;51.922;8.896;2024-02-14T09:06:14;10.20;;;4.77;;
2305;SDS011;1161;51.922;8.896;2024-02-14T09:08:41;7.93;;;5.73;;
2305;SDS011;1161;51.922;8.896;2024-02-14T09:11:08;7.10;;;5.90;;
2305;SDS011;1161;51.922;8.896;2024-02-14T09:13:35;10.90;;;6.00;;
2305;SDS011;1161;51.922;8.896;2024-02-14T09:16:04;11.10;;;5.83;;
2305;SDS011;1161;51.922;8.896;2024-02-14T09:18:31;10.27;;;5.90;;
2305;SDS011;1161;51.922;8.896;2024-02-14T09:20:58;8.27;;;6.97;;
2305;SDS011;1161;51.922;8.896;2024-02-14T09:23:26;8.43;;;5.27;;
2305;SDS011;1161;51.922;8.896;2024-02-14T09:25:54;8.40;;;5.97;;
2305;SDS011;1161;51.922;8.896;2024-02-14T09:28:23;7.67;;;6.00;;
2305;SDS011;1161;51.922;8.896;2024-02-14T09:30:50;10.60;;;6.10;;
2305;SDS011;1161;51.922;8.896;2024-02-14T09:33:18;10.07;;;6.20;;
2305;SDS011;1161;51.922;8.896;2024-02-14T09:35:46;6.87;;;5.40;;
2305;SDS011;1161;51.922;8.896;2024-02-14T09:38:13;8.53;;;6.70;;
2305;SDS011;1161;51.922;8.896;2024-02-14T09:40:40;5.90;;;5.37;;
2305;SDS011;1161;51.922;8.896;2024-02-14T09:43:08;10.00;;;6.93;;
2305;SDS011;1161;51.922;8.896;2024-02-14T09:45:45;9.20;;;6.80;;
2305;SDS011;1161;51.922;8.896;2024-02-14T09:48:12;8.37;;;5.80;;
2305;SDS011;1161;51.922;8.896;2024-02-14T09:50:42;7.83;;;5.67;;
2305;SDS011;1161;51.922;8.896;2024-02-14T09:53:09;8.07;;;6.00;;
2305;SDS011;1161;51.922;8.896;2024-02-14T09:55:36;9.77;;;6.20;;
2305;SDS011;1161;51.922;8.896;2024-02-14T09:58:04;9.00;;;5.57;;
2305;SDS011;1161;51.922;8.896;2024-02-14T10:00:32;6.87;;;5.33;;
2305;SDS011;1161;51.922;8.896;2024-02-14T10:02:59;8.37;;;5.73;;
2305;SDS011;1161;51.922;8.896;2024-02-14T10:05:26;5.33;;;4.57;;
2305;SDS011;1161;51.922;8.896;2024-02-14T10:07:54;7.57;;;6.20;;
2305;SDS011;1161;51.922;8.896;2024-02-14T10:10:24;8.77;;;6.33;;
2305;SDS011;1161;51.922;8.896;2024-02-14T10:12:51;11.10;;;6.37;;
2305;SDS011;1161;51.922;8.896;2024-02-14T10:15:20;9.73;;;6.93;;
2305;SDS011;1161;51.922;8.896;2024-02-14T10:17:49;7.27;;;5.17;;
2305;SDS011;1161;51.922;8.896;2024-02-14T10:20:16;11.63;;;5.80;;
2305;SDS011;1161;51.922;8.896;2024-02-14T10:22:44;11.93;;;6.77;;
2305;SDS011;1161;51.922;8.896;2024-02-14T10:25:13;10.50;;;6.10;;
2305;SDS011;1161;51.922;8.896;2024-02-14T10:27:40;11.47;;;6.33;;
2305;SDS011;1161;51.922;8.896;2024-02-14T10:30:07;10.13;;;6.83;;
2305;SDS011;1161;51.922;8.896;2024-02-14T10:32:35;7.80;;;5.73;;
2305;SDS011;1161;51.922;8.896;2024-02-14T10:35:03;9.20;;;7.67;;
2305;SDS011;1161;51.922;8.896;2024-02-14T10:37:34;9.10;;;6.40;;
2305;SDS011;1161;51.922;8.896;2024-02-14T10:40:02;11.80;;;7.60;;
2305;SDS011;1161;51.922;8.896;2024-02-14T10:42:30;11.37;;;6.93;;
2305;SDS011;1161;51.922;8.896;2024-02-14T10:44:58;15.73;;;8.30;;
2305;SDS011;1161;51.922;8.896;2024-02-14T10:47:29;8.53;;;6.73;;
2305;SDS011;1161;51.922;8.896;2024-02-14T10:49:57;10.90;;;6.83;;
2305;SDS011;1161;51.922;8.896;2024-02-14T10:52:24;8.30;;;6.57;;
2305;SDS011;1161;51.922;8.896;2024-02-14T10:54:52;8.80;;;6.47;;
2305;SDS011;1161;51.922;8.896;2024-02-14T10:57:22;10.63;;;6.40;;
2305;SDS011;1161;51.922;8.896;2024-02-14T10:59:52;8.43;;;6.60;;
2305;SDS011;1161;51.922;8.896;2024-02-14T11:02:19;10.10;;;7.30;;
2305;SDS011;1161;51.922;8.896;2024-02-14T11:04:46;12.00;;;7.70;;
2305;SDS011;1161;51.922;8.896;2024-02-14T11:07:13;12.70;;;6.97;;
2305;SDS011;1161;51.922;8.896;2024-02-14T11:09:43;8.40;;;6.50;;
2305;SDS011;1161;51.922;8.896;2024-02-14T11:12:10;8.00;;;6.23;;
2305;SDS011;1161;51.922;8.896;2024-02-14T11:14:37;12.10;;;7.67;;
2305;SDS011;1161;51.922;8.896;2024-02-14T11:17:08;8.67;;;6.97;;
2305;SDS011;1161;51.922;8.896;2024-02-14T11:19:36;10.90;;;7.03;;
2305;SDS011;1161;51.922;8.896;2024-02-14T11:22:11;14.27;;;7.93;;
2305;SDS011;1161;51.922;8.896;2024-02-14T11:24:39;11.07;;;7.83;;
2305;SDS011;1161;51.922;8.896;2024-02-14T11:27:09;11.70;;;9.00;;
2305;SDS011;1161;51.922;8.896;2024-02-14T11:29:38;16.10;;;7.60;;
2305;SDS011;1161;51.922;8.896;2024-02-14T11:32:06;12.00;;;8.40;;
2305;SDS011;1161;51.922;8.896;2024-02-14T11:34:35;17.20;;;10.10;;
2305;SDS011;1161;51.922;8.896;2024-02-14T11:37:01;9.87;;;8.87;;
2305;SDS011;1161;51.922;8.896;2024-02-14T11:39:29;17.60;;;12.10;;
2305;SDS011;1161;51.922;8.896;2024-02-14T11:41:58;23.67;;;13.17;;
2305;SDS011;1161;51.922;8.896;2024-02-14T11:44:26;14.17;;;7.77;;
2305;SDS011;1161;51.922;8.896;2024-02-14T11:46:52;9.70;;;7.10;;
2305;SDS011;1161;51.922;8.896;2024-02-14T11:49:22;7.90;;;6.03;;
2305;SDS011;1161;51.922;8.896;2024-02-14T11:51:48;7.30;;;6.00;;
2305;SDS011;1161;51.922;8.896;2024-02-14T11:54:15;7.00;;;4.90;;
2305;SDS011;1161;51.922;8.896;2024-02-14T11:56:43;5.40;;;4.90;;
2305;SDS011;1161;51.922;8.896;2024-02-14T11:59:10;9.20;;;6.13;;
2305;SDS011;1161;51.922;8.896;2024-02-14T12:01:37;10.50;;;6.07;;
2305;SDS011;1161;51.922;8.896;2024-02-14T12:04:04;10.20;;;6.20;;
2305;SDS011;1161;51.922;8.896;2024-02-14T12:06:35;8.40;;;6.30;;
2305;SDS011;1161;51.922;8.896;2024-02-14T12:09:03;6.83;;;6.13;;
2305;SDS011;1161;51.922;8.896;2024-02-14T12:11:31;10.37;;;6.37;;
2305;SDS011;1161;51.922;8.896;2024-02-14T12:14:00;10.23;;;6.90;;
2305;SDS011;1161;51.922;8.896;2024-02-14T12:16:27;8.40;;;5.60;;
2305;SDS011;1161;51.922;8.896;2024-02-14T12:19:03;5.27;;;4.77;;
2305;SDS011;1161;51.922;8.896;2024-02-14T12:21:35;5.07;;;4.57;;
2305;SDS011;1161;51.922;8.896;2024-02-14T12:24:03;5.73;;;5.03;;
2305;SDS011;1161;51.922;8.896;2024-02-14T12:26:31;6.00;;;5.10;;
2305;SDS011;1161;51.922;8.896;2024-02-14T12:28:57;6.40;;;5.70;;
2305;SDS011;1161;51.922;8.896;2024-02-14T12:31:24;5.53;;;4.83;;
2305;SDS011;1161;51.922;8.896;2024-02-14T12:33:52;8.27;;;6.37;;
2305;SDS011;1161;51.922;8.896;2024-02-14T12:36:20;8.77;;;6.40;;
2305;SDS011;1161;51.922;8.896;2024-02-14T12:38:48;6.67;;;5.33;;
2305;SDS011;1161;51.922;8.896;2024-02-14T12:41:17;6.43;;;4.90;;
2305;SDS011;1161;51.922;8.896;2024-02-14T12:43:43;7.30;;;5.20;;
2305;SDS011;1161;51.922;8.896;2024-02-14T12:46:10;5.40;;;4.80;;
2305;SDS011;1161;51.922;8.896;2024-02-14T12:48:37;6.43;;;4.03;;
2305;SDS011;1161;51.922;8.896;2024-02-14T12:51:04;9.10;;;6.60;;
2305;SDS011;1161;51.922;8.896;2024-02-14T12:53:31;5.63;;;5.00;;
2305;SDS011;1161;51.922;8.896;2024-02-14T12:55:59;7.13;;;5.60;;
2305;SDS011;1161;51.922;8.896;2024-02-14T12:58:25;7.23;;;5.30;;
2305;SDS011;1161;51.922;8.896;2024-02-14T13:00:52;7.90;;;5.20;;
2305;SDS011;1161;51.922;8.896;2024-02-14T13:03:19;6.37;;;4.90;;
2305;SDS011;1161;51.922;8.896;2024-02-14T13:05:46;4.37;;;3.97;;
2305;SDS011;1161;51.922;8.896;2024-02-14T13:08:13;3.80;;;3.50;;
2305;SDS011;1161;51.922;8.896;2024-02-14T13:10:42;4.17;;;3.17;;
2305;SDS011;1161;51.922;8.896;2024-02-14T13:13:11;3.37;;;3.10;;
2305;SDS011;1161;51.922;8.896;2024-02-14T13:15:38;4.00;;;3.57;;
2305;SDS011;1161;51.922;8.896;2024-02-14T13:18:06;4.37;;;3.10;;
2305;SDS011;1161;51.922;8.896;2024-02-14T13:20:33;4.63;;;3.60;;
2305;SDS011;1161;51.922;8.896;2024-02-14T13:23:00;4.17;;;3.73;;
2305;SDS011;1161;51.922;8.896;2024-02-14T13:25:28;6.33;;;5.17;;
2305;SDS011;1161;51.922;8.896;2024-02-14T13:27:55;5.80;;;5.20;;
2305;SDS011;1161;51.922;8.896;2024-02-14T13:30:25;5.93;;;4.80;;
2305;SDS011;1161;51.922;8.896;2024-02-14T13:32:52;5.27;;;4.77;;
2305;SDS011;1161;51.922;8.896;2024-02-14T13:35:18;5.07;;;4.10;;
2305;SDS011;1161;51.922;8.896;2024-02-14T13:37:45;4.93;;;3.63;;
2305;SDS011;1161;51.922;8.896;2024-02-14T13:40:12;8.10;;;6.47;;
2305;SDS011;1161;51.922;8.896;2024-02-14T13:42:38;13.80;;;6.67;;
2305;SDS011;1161;51.922;8.896;2024-02-14T13:45:06;13.80;;;8.53;;
2305;SDS011;1161;51.922;8.896;2024-02-14T13:47:36;12.40;;;7.37;;
2305;SDS011;1161;51.922;8.896;2024-02-14T13:50:04;10.37;;;7.03;;
2305;SDS011;1161;51.922;8.896;2024-02-14T13:52:31;11.60;;;7.57;;
2305;SDS011;1161;51.922;8.896;2024-02-14T13:54:58;13.60;;;8.87;;
2305;SDS011;1161;51.922;8.896;2024-02-14T13:57:27;11.80;;;8.90;;
2305;SDS011;1161;51.922;8.896;2024-02-14T13:59:54;12.90;;;8.00;;
2305;SDS011;1161;51.922;8.896;2024-02-14T14:02:21;13.43;;;8.83;;
2305;SDS011;1161;51.922;8.896;2024-02-14T14:04:50;16.30;;;10.33;;
2305;SDS011;1161;51.922;8.896;2024-02-14T14:07:18;9.33;;;7.03;;
2305;SDS011;1161;51.922;8.896;2024-02-14T14:09:45;10.60;;;7.10;;
2305;SDS011;1161;51.922;8.896;2024-02-14T14:12:12;14.53;;;8.73;;
2305;SDS011;1161;51.922;8.896;2024-02-14T14:14:40;8.40;;;7.20;;
2305;SDS011;1161;51.922;8.896;2024-02-14T14:17:07;21.47;;;8.97;;
2305;SDS011;1161;51.922;8.896;2024-02-14T14:19:33;7.90;;;6.40;;
2305;SDS011;1161;51.922;8.896;2024-02-14T14:22:02;10.77;;;7.87;;
2305;SDS011;1161;51.922;8.896;2024-02-14T14:24:28;8.50;;;5.83;;
2305;SDS011;1161;51.922;8.896;2024-02-14T14:26:57;9.10;;;6.53;;
2305;SDS011;1161;51.922;8.896;2024-02-14T14:29:23;11.17;;;7.23;;
2305;SDS011;1161;51.922;8.896;2024-02-14T14:31:50;9.77;;;6.80;;
2305;SDS011;1161;51.922;8.896;2024-02-14T14:34:17;10.20;;;7.90;;
2305;SDS011;1161;51.922;8.896;2024-02-14T14:36:44;11.63;;;8.30;;
2305;SDS011;1161;51.922;8.896;2024-02-14T14:39:12;7.03;;;6.33;;
2305;SDS011;1161;51.922;8.896;2024-02-14T14:41:39;9.10;;;7.30;;
2305;SDS011;1161;51.922;8.896;2024-02-14T14:44:07;8.20;;;6.30;;
2305;SDS011;1161;51.922;8.896;2024-02-14T14:46:34;11.80;;;7.67;;
2305;SDS011;1161;51.922;8.896;2024-02-14T14:49:05;12.27;;;7.30;;
2305;SDS011;1161;51.922;8.896;2024-02-14T14:51:31;7.00;;;6.30;;
2305;SDS011;1161;51.922;8.896;2024-02-14T14:53:58;7.43;;;6.70;;
2305;SDS011;1161;51.922;8.896;2024-02-14T14:56:27;8.10;;;6.53;;
2305;SDS011;1161;51.922;8.896;2024-02-14T14:58:54;8.77;;;6.77;;
2305;SDS011;1161;51.922;8.896;2024-02-14T15:01:21;9.47;;;6.90;;
2305;SDS011;1161;51.922;8.896;2024-02-14T15:03:48;14.40;;;8.90;;
2305;SDS011;1161;51.922;8.896;2024-02-14T15:06:15;8.53;;;5.83;;
2305;SDS011;1161;51.922;8.896;2024-02-14T15:08:41;11.20;;;6.40;;
2305;SDS011;1161;51.922;8.896;2024-02-14T15:11:08;10.53;;;6.80;;
2305;SDS011;1161;51.922;8.896;2024-02-14T15:13:36;9.60;;;6.00;;